sensor_id;sensor_type;location;lat;lon;timestamp;P1;durP1;ratioP1;P2;durP2;ratioP2
1404;SDS011;697;51.114;6.542;2023-05-10T00:00:37;14.93;;;13.53;;
1404;SDS011;697;51.114;6.542;2023-05-10T00:03:03;15.33;;;13.80;;
1404;SDS011;697;51.114;6.542;2023-05-10T00:05:30;12.23;;;11.07;;
1404;SDS011;697;51.114;6.542;2023-05-10T00:07:57;12.67;;;11.47;;
1404;SDS011;697;51.114;6.542;2023-05-10T00:10:25;12.73;;;11.53;;
1404;SDS011;697;51.114;6.542;2023-05-10T00:12:52;12.30;;;11.10;;
1404;SDS011;697;51.114;6.542;2023-05-10T00:15:18;12.30;;;11.13;;
1404;SDS011;697;51.114;6.542;2023-05-10T00:17:45;11.90;;;10.80;;
1404;SDS011;697;51.114;6.542;2023-05-10T00:20:12;12.67;;;11.47;;
1404;SDS011;697;51.114;6.542;2023-05-10T00:22:38;11.90;;;10.80;;
1404;SDS011;697;51.114;6.542;2023-05-10T00:25:05;11.97;;;10.77;;
1404;SDS011;697;51.114;6.542;2023-05-10T00:27:35;10.97;;;9.50;;
1404;SDS011;697;51.114;6.542;2023-05-10T00:30:02;12.00;;;10.90;;
1404;SDS011;697;51.114;6.542;2023-05-10T00:32:28;11.03;;;9.97;;
1404;SDS011;697;51.114;6.542;2023-05-10T00:34:55;12.10;;;10.57;;
1404;SDS011;697;51.114;6.542;2023-05-10T00:37:22;10.83;;;9.83;;
1404;SDS011;697;51.114;6.542;2023-05-10T00:39:49;10.13;;;9.13;;
1404;SDS011;697;51.114;6.542;2023-05-10T00:42:16;9.30;;;8.37;;
1404;SDS011;697;51.114;6.542;2023-05-10T00:44:44;8.93;;;8.13;;
1404;SDS011;697;51.114;6.542;2023-05-10T00:47:11;9.67;;;8.77;;
1404;SDS011;697;51.114;6.542;2023-05-10T00:49:38;9.83;;;8.60;;
1404;SDS011;697;51.114;6.542;2023-05-10T00:52:06;9.10;;;8.20;;
1404;SDS011;697;51.114;6.542;2023-05-10T00:54:33;9.13;;;8.23;;
1404;SDS011;697;51.114;6.542;2023-05-10T00:57:00;7.60;;;6.90;;
1404;SDS011;697;51.114;6.542;2023-05-10T00:59:28;7.07;;;6.37;;
1404;SDS011;697;51.114;6.542;2023-05-10T01:01:56;6.73;;;6.13;;
1404;SDS011;697;51.114;6.542;2023-05-10T01:04:24;6.40;;;5.80;;
1404;SDS011;697;51.114;6.542;2023-05-10T01:06:51;6.70;;;5.03;;
1404;SDS011;697;51.114;6.542;2023-05-10T01:09:19;6.87;;;6.27;;
1404;SDS011;697;51.114;6.542;2023-05-10T01:11:46;7.33;;;5.20;;
1404;SDS011;697;51.114;6.542;2023-05-10T01:14:13;6.53;;;5.40;;
1404;SDS011;697;51.114;6.542;2023-05-10T01:16:43;5.70;;;5.00;;
1404;SDS011;697;51.114;6.542;2023-05-10T01:19:16;5.70;;;5.20;;
1404;SDS011;697;51.114;6.542;2023-05-10T01:21:48;5.10;;;4.63;;
1404;SDS011;697;51.114;6.542;2023-05-10T01:24:38;4.47;;;3.87;;
1404;SDS011;697;51.114;6.542;2023-05-10T01:27:20;4.47;;;3.27;;
1404;SDS011;697;51.114;6.542;2023-05-10T01:30:05;4.37;;;3.67;;
1404;SDS011;697;51.114;6.542;2023-05-10T01:32:47;3.23;;;3.00;;
1404;SDS011;697;51.114;6.542;2023-05-10T01:35:19;5.73;;;2.90;;
1404;SDS011;697;51.114;6.542;2023-05-10T01:37:55;3.33;;;3.03;;
1404;SDS011;697;51.114;6.542;2023-05-10T01:40:29;3.87;;;3.57;;
1404;SDS011;697;51.114;6.542;2023-05-10T01:42:59;4.70;;;3.53;;
1404;SDS011;697;51.114;6.542;2023-05-10T01:45:30;4.87;;;4.07;;
1404;SDS011;697;51.114;6.542;2023-05-10T01:48:04;4.13;;;3.73;;
1404;SDS011;697;51.114;6.542;2023-05-10T01:50:32;5.60;;;4.27;;
1404;SDS011;697;51.114;6.542;2023-05-10T01:53:01;4.97;;;4.37;;
1404;SDS011;697;51.114;6.542;2023-05-10T01:55:32;5.80;;;5.30;;
1404;SDS011;697;51.114;6.542;2023-05-10T01:58:02;8.53;;;7.17;;
1404;SDS011;697;51.114;6.542;2023-05-10T02:00:31;8.90;;;7.90;;
1404;SDS011;697;51.114;6.542;2023-05-10T02:02:59;10.80;;;8.80;;
1404;SDS011;697;51.114;6.542;2023-05-10T02:05:31;10.50;;;9.40;;
1404;SDS011;697;51.114;6.542;2023-05-10T02:07:59;8.70;;;7.93;;
1404;SDS011;697;51.114;6.542;2023-05-10T02:10:27;10.57;;;9.47;;
1404;SDS011;697;51.114;6.542;2023-05-10T02:12:54;9.63;;;8.70;;
1404;SDS011;697;51.114;6.542;2023-05-10T02:15:24;10.30;;;9.30;;
1404;SDS011;697;51.114;6.542;2023-05-10T02:17:52;11.00;;;10.00;;
1404;SDS011;697;51.114;6.542;2023-05-10T02:20:21;9.80;;;8.90;;
1404;SDS011;697;51.114;6.542;2023-05-10T02:22:51;10.97;;;9.73;;
1404;SDS011;697;51.114;6.542;2023-05-10T02:25:20;9.60;;;8.60;;
1404;SDS011;697;51.114;6.542;2023-05-10T02:27:49;9.17;;;8.27;;
1404;SDS011;697;51.114;6.542;2023-05-10T02:30:17;11.60;;;8.70;;
1404;SDS011;697;51.114;6.542;2023-05-10T02:32:45;11.20;;;8.90;;
1404;SDS011;697;51.114;6.542;2023-05-10T02:35:13;10.23;;;9.23;;
1404;SDS011;697;51.114;6.542;2023-05-10T02:37:41;9.57;;;8.67;;
1404;SDS011;697;51.114;6.542;2023-05-10T02:40:11;10.80;;;8.33;;
1404;SDS011;697;51.114;6.542;2023-05-10T02:42:38;9.93;;;8.97;;
1404;SDS011;697;51.114;6.542;2023-05-10T02:45:11;9.53;;;8.53;;
1404;SDS011;697;51.114;6.542;2023-05-10T02:47:39;9.70;;;8.50;;
1404;SDS011;697;51.114;6.542;2023-05-10T02:50:06;11.00;;;9.33;;
1404;SDS011;697;51.114;6.542;2023-05-10T02:52:37;9.70;;;8.73;;
1404;SDS011;697;51.114;6.542;2023-05-10T02:55:06;10.80;;;9.67;;
1404;SDS011;697;51.114;6.542;2023-05-10T02:57:39;10.27;;;9.30;;
1404;SDS011;697;51.114;6.542;2023-05-10T03:00:09;9.90;;;8.90;;
1404;SDS011;697;51.114;6.542;2023-05-10T03:02:36;10.37;;;9.30;;
1404;SDS011;697;51.114;6.542;2023-05-10T03:05:03;11.33;;;10.10;;
1404;SDS011;697;51.114;6.542;2023-05-10T03:07:30;12.10;;;10.80;;
1404;SDS011;697;51.114;6.542;2023-05-10T03:09:58;11.80;;;9.90;;
1404;SDS011;697;51.114;6.542;2023-05-10T03:12:31;11.90;;;10.60;;
1404;SDS011;697;51.114;6.542;2023-05-10T03:15:09;14.70;;;11.40;;
1404;SDS011;697;51.114;6.542;2023-05-10T03:17:41;13.43;;;11.70;;
1404;SDS011;697;51.114;6.542;2023-05-10T03:20:16;15.30;;;12.43;;
1404;SDS011;697;51.114;6.542;2023-05-10T03:22:49;15.60;;;12.87;;
1404;SDS011;697;51.114;6.542;2023-05-10T03:25:19;16.93;;;14.23;;
1404;SDS011;697;51.114;6.542;2023-05-10T03:27:49;16.47;;;14.67;;
1404;SDS011;697;51.114;6.542;2023-05-10T03:30:16;19.60;;;16.83;;
1404;SDS011;697;51.114;6.542;2023-05-10T03:32:43;22.43;;;17.10;;
1404;SDS011;697;51.114;6.542;2023-05-10T03:35:10;23.83;;;18.23;;
1404;SDS011;697;51.114;6.542;2023-05-10T03:37:39;20.33;;;16.77;;
1404;SDS011;697;51.114;6.542;2023-05-10T03:40:06;21.00;;;17.10;;
1404;SDS011;697;51.114;6.542;2023-05-10T03:42:33;22.23;;;18.47;;
1404;SDS011;697;51.114;6.542;2023-05-10T03:45:02;22.40;;;17.43;;
1404;SDS011;697;51.114;6.542;2023-05-10T03:47:29;20.50;;;18.30;;
1404;SDS011;697;51.114;6.542;2023-05-10T03:49:55;22.10;;;17.10;;
1404;SDS011;697;51.114;6.542;2023-05-10T03:52:22;21.20;;;17.20;;
1404;SDS011;697;51.114;6.542;2023-05-10T03:54:49;24.07;;;18.67;;
1404;SDS011;697;51.114;6.542;2023-05-10T03:57:15;22.13;;;19.73;;
1404;SDS011;697;51.114;6.542;2023-05-10T03:59:42;22.70;;;19.37;;
1404;SDS011;697;51.114;6.542;2023-05-10T04:02:10;22.30;;;18.60;;
1404;SDS011;697;51.114;6.542;2023-05-10T04:04:37;26.07;;;19.13;;
1404;SDS011;697;51.114;6.542;2023-05-10T04:07:03;20.70;;;17.97;;
1404;SDS011;697;51.114;6.542;2023-05-10T04:09:30;20.60;;;17.70;;
1404;SDS011;697;51.114;6.542;2023-05-10T04:11:58;19.20;;;16.70;;
1404;SDS011;697;51.114;6.542;2023-05-10T04:14:25;18.93;;;16.47;;
1404;SDS011;697;51.114;6.542;2023-05-10T04:16:53;17.23;;;15.43;;
1404;SDS011;697;51.114;6.542;2023-05-10T04:19:21;20.03;;;15.97;;
1404;SDS011;697;51.114;6.542;2023-05-10T04:21:48;22.60;;;14.70;;
1404;SDS011;697;51.114;6.542;2023-05-10T04:24:15;17.10;;;14.40;;
1404;SDS011;697;51.114;6.542;2023-05-10T04:26:41;15.80;;;14.13;;
1404;SDS011;697;51.114;6.542;2023-05-10T04:29:08;16.00;;;14.33;;
1404;SDS011;697;51.114;6.542;2023-05-10T04:31:34;15.37;;;13.73;;
1404;SDS011;697;51.114;6.542;2023-05-10T04:34:02;16.40;;;13.37;;
1404;SDS011;697;51.114;6.542;2023-05-10T04:36:30;16.20;;;12.50;;
1404;SDS011;697;51.114;6.542;2023-05-10T04:38:57;13.57;;;12.13;;
1404;SDS011;697;51.114;6.542;2023-05-10T04:41:24;15.20;;;11.53;;
1404;SDS011;697;51.114;6.542;2023-05-10T04:43:50;14.57;;;12.50;;
1404;SDS011;697;51.114;6.542;2023-05-10T04:46:17;15.73;;;12.73;;
1404;SDS011;697;51.114;6.542;2023-05-10T04:48:44;14.17;;;12.03;;
1404;SDS011;697;51.114;6.542;2023-05-10T04:51:10;15.20;;;13.60;;
1404;SDS011;697;51.114;6.542;2023-05-10T04:53:38;17.73;;;14.00;;
1404;SDS011;697;51.114;6.542;2023-05-10T04:56:05;14.77;;;13.20;;
1404;SDS011;697;51.114;6.542;2023-05-10T04:58:33;19.83;;;13.10;;
1404;SDS011;697;51.114;6.542;2023-05-10T05:01:04;14.00;;;12.50;;
1404;SDS011;697;51.114;6.542;2023-05-10T05:03:32;19.03;;;13.37;;
1404;SDS011;697;51.114;6.542;2023-05-10T05:05:58;22.60;;;15.00;;
1404;SDS011;697;51.114;6.542;2023-05-10T05:08:25;14.17;;;12.27;;
1404;SDS011;697;51.114;6.542;2023-05-10T05:10:53;14.70;;;13.03;;
1404;SDS011;697;51.114;6.542;2023-05-10T05:13:20;13.20;;;11.77;;
1404;SDS011;697;51.114;6.542;2023-05-10T05:15:47;14.63;;;11.93;;
1404;SDS011;697;51.114;6.542;2023-05-10T05:18:14;13.13;;;11.83;;
1404;SDS011;697;51.114;6.542;2023-05-10T05:20:40;13.00;;;11.33;;
1404;SDS011;697;51.114;6.542;2023-05-10T05:23:07;17.07;;;12.73;;
1404;SDS011;697;51.114;6.542;2023-05-10T05:25:34;18.10;;;14.03;;
1404;SDS011;697;51.114;6.542;2023-05-10T05:28:02;19.17;;;13.97;;
1404;SDS011;697;51.114;6.542;2023-05-10T05:30:28;16.73;;;12.57;;
1404;SDS011;697;51.114;6.542;2023-05-10T05:32:55;19.53;;;14.10;;
1404;SDS011;697;51.114;6.542;2023-05-10T05:35:22;18.80;;;14.30;;
1404;SDS011;697;51.114;6.542;2023-05-10T05:37:49;18.97;;;15.53;;
1404;SDS011;697;51.114;6.542;2023-05-10T05:40:15;18.37;;;15.23;;
1404;SDS011;697;51.114;6.542;2023-05-10T05:42:42;19.63;;;15.47;;
1404;SDS011;697;51.114;6.542;2023-05-10T05:45:10;23.27;;;15.40;;
1404;SDS011;697;51.114;6.542;2023-05-10T05:47:38;22.73;;;15.97;;
1404;SDS011;697;51.114;6.542;2023-05-10T05:50:05;21.20;;;16.13;;
1404;SDS011;697;51.114;6.542;2023-05-10T05:52:32;22.30;;;17.13;;
1404;SDS011;697;51.114;6.542;2023-05-10T05:54:59;19.33;;;14.97;;
1404;SDS011;697;51.114;6.542;2023-05-10T05:57:26;21.73;;;16.80;;
1404;SDS011;697;51.114;6.542;2023-05-10T05:59:52;21.47;;;16.53;;
1404;SDS011;697;51.114;6.542;2023-05-10T06:02:20;20.30;;;15.57;;
1404;SDS011;697;51.114;6.542;2023-05-10T06:04:47;22.97;;;16.30;;
1404;SDS011;697;51.114;6.542;2023-05-10T06:07:14;18.30;;;14.37;;
1404;SDS011;697;51.114;6.542;2023-05-10T06:09:40;16.90;;;14.67;;
1404;SDS011;697;51.114;6.542;2023-05-10T06:12:07;22.33;;;15.30;;
1404;SDS011;697;51.114;6.542;2023-05-10T06:14:34;18.80;;;14.63;;
1404;SDS011;697;51.114;6.542;2023-05-10T06:17:00;19.77;;;13.90;;
1404;SDS011;697;51.114;6.542;2023-05-10T06:19:31;28.70;;;14.80;;
1404;SDS011;697;51.114;6.542;2023-05-10T06:21:57;15.33;;;13.60;;
1404;SDS011;697;51.114;6.542;2023-05-10T06:24:24;17.73;;;13.67;;
1404;SDS011;697;51.114;6.542;2023-05-10T06:26:52;20.13;;;14.60;;
1404;SDS011;697;51.114;6.542;2023-05-10T06:29:18;19.43;;;13.83;;
1404;SDS011;697;51.114;6.542;2023-05-10T06:31:45;24.37;;;14.70;;
1404;SDS011;697;51.114;6.542;2023-05-10T06:34:12;22.33;;;16.00;;
1404;SDS011;697;51.114;6.542;2023-05-10T06:36:40;23.17;;;16.90;;
1404;SDS011;697;51.114;6.542;2023-05-10T06:39:07;22.17;;;15.97;;
1404;SDS011;697;51.114;6.542;2023-05-10T06:41:34;20.87;;;15.30;;
1404;SDS011;697;51.114;6.542;2023-05-10T06:44:01;27.93;;;17.07;;
1404;SDS011;697;51.114;6.542;2023-05-10T06:46:28;22.63;;;15.90;;
1404;SDS011;697;51.114;6.542;2023-05-10T06:48:55;21.90;;;15.07;;
1404;SDS011;697;51.114;6.542;2023-05-10T06:51:22;19.00;;;16.53;;
1404;SDS011;697;51.114;6.542;2023-05-10T06:53:50;23.87;;;17.90;;
1404;SDS011;697;51.114;6.542;2023-05-10T06:56:16;22.20;;;16.17;;
1404;SDS011;697;51.114;6.542;2023-05-10T06:58:43;22.80;;;16.23;;
1404;SDS011;697;51.114;6.542;2023-05-10T07:01:10;21.60;;;17.60;;
1404;SDS011;697;51.114;6.542;2023-05-10T07:03:37;22.07;;;15.87;;
1404;SDS011;697;51.114;6.542;2023-05-10T07:06:04;22.77;;;16.23;;
1404;SDS011;697;51.114;6.542;2023-05-10T07:08:32;24.27;;;17.70;;
1404;SDS011;697;51.114;6.542;2023-05-10T07:11:00;20.20;;;14.70;;
1404;SDS011;697;51.114;6.542;2023-05-10T07:13:28;23.70;;;16.97;;
1404;SDS011;697;51.114;6.542;2023-05-10T07:15:56;23.13;;;19.70;;
1404;SDS011;697;51.114;6.542;2023-05-10T07:18:23;26.10;;;17.33;;
1404;SDS011;697;51.114;6.542;2023-05-10T07:20:49;23.47;;;18.10;;
1404;SDS011;697;51.114;6.542;2023-05-10T07:23:16;23.67;;;18.50;;
1404;SDS011;697;51.114;6.542;2023-05-10T07:25:44;23.30;;;18.70;;
1404;SDS011;697;51.114;6.542;2023-05-10T07:28:12;26.33;;;18.50;;
1404;SDS011;697;51.114;6.542;2023-05-10T07:30:39;28.67;;;20.73;;
1404;SDS011;697;51.114;6.542;2023-05-10T07:33:07;29.80;;;21.10;;
1404;SDS011;697;51.114;6.542;2023-05-10T07:35:34;30.00;;;22.50;;
1404;SDS011;697;51.114;6.542;2023-05-10T07:38:01;34.23;;;23.73;;
1404;SDS011;697;51.114;6.542;2023-05-10T07:40:28;34.70;;;23.63;;
1404;SDS011;697;51.114;6.542;2023-05-10T07:42:55;34.87;;;24.30;;
1404;SDS011;697;51.114;6.542;2023-05-10T07:45:23;34.70;;;25.03;;
1404;SDS011;697;51.114;6.542;2023-05-10T07:47:50;38.20;;;25.10;;
1404;SDS011;697;51.114;6.542;2023-05-10T07:50:16;38.23;;;26.00;;
1404;SDS011;697;51.114;6.542;2023-05-10T07:52:43;39.00;;;24.83;;
1404;SDS011;697;51.114;6.542;2023-05-10T07:55:10;37.17;;;25.47;;
1404;SDS011;697;51.114;6.542;2023-05-10T07:57:37;34.40;;;24.73;;
1404;SDS011;697;51.114;6.542;2023-05-10T08:00:04;31.63;;;22.30;;
1404;SDS011;697;51.114;6.542;2023-05-10T08:02:34;28.00;;;22.63;;
1404;SDS011;697;51.114;6.542;2023-05-10T08:05:01;26.60;;;21.17;;
1404;SDS011;697;51.114;6.542;2023-05-10T08:07:30;27.37;;;21.13;;
1404;SDS011;697;51.114;6.542;2023-05-10T08:09:57;26.33;;;19.80;;
1404;SDS011;697;51.114;6.542;2023-05-10T08:12:23;25.47;;;19.10;;
1404;SDS011;697;51.114;6.542;2023-05-10T08:14:50;29.83;;;19.00;;
1404;SDS011;697;51.114;6.542;2023-05-10T08:17:17;25.00;;;20.07;;
1404;SDS011;697;51.114;6.542;2023-05-10T08:19:45;25.93;;;20.10;;
1404;SDS011;697;51.114;6.542;2023-05-10T08:22:11;25.60;;;21.77;;
1404;SDS011;697;51.114;6.542;2023-05-10T08:24:38;32.83;;;19.33;;
1404;SDS011;697;51.114;6.542;2023-05-10T08:27:07;25.63;;;19.83;;
1404;SDS011;697;51.114;6.542;2023-05-10T08:29:34;29.20;;;21.63;;
1404;SDS011;697;51.114;6.542;2023-05-10T08:32:00;28.33;;;20.03;;
1404;SDS011;697;51.114;6.542;2023-05-10T08:34:27;24.77;;;20.40;;
1404;SDS011;697;51.114;6.542;2023-05-10T08:36:57;22.93;;;19.50;;
1404;SDS011;697;51.114;6.542;2023-05-10T08:39:24;22.67;;;17.67;;
1404;SDS011;697;51.114;6.542;2023-05-10T08:41:50;22.40;;;18.10;;
1404;SDS011;697;51.114;6.542;2023-05-10T08:44:19;21.87;;;16.93;;
1404;SDS011;697;51.114;6.542;2023-05-10T08:46:46;24.53;;;18.70;;
1404;SDS011;697;51.114;6.542;2023-05-10T08:49:19;22.47;;;18.53;;
1404;SDS011;697;51.114;6.542;2023-05-10T08:51:49;25.00;;;20.10;;
1404;SDS011;697;51.114;6.542;2023-05-10T08:54:22;27.33;;;21.10;;
1404;SDS011;697;51.114;6.542;2023-05-10T08:56:49;24.43;;;19.87;;
1404;SDS011;697;51.114;6.542;2023-05-10T08:59:16;22.27;;;19.30;;
1404;SDS011;697;51.114;6.542;2023-05-10T09:01:43;22.40;;;18.50;;
1404;SDS011;697;51.114;6.542;2023-05-10T09:04:10;19.70;;;16.37;;
1404;SDS011;697;51.114;6.542;2023-05-10T09:06:38;20.00;;;17.70;;
1404;SDS011;697;51.114;6.542;2023-05-10T09:09:04;20.93;;;17.60;;
1404;SDS011;697;51.114;6.542;2023-05-10T09:11:33;21.03;;;16.90;;
1404;SDS011;697;51.114;6.542;2023-05-10T09:14:00;24.00;;;17.73;;
1404;SDS011;697;51.114;6.542;2023-05-10T09:16:27;24.77;;;18.20;;
1404;SDS011;697;51.114;6.542;2023-05-10T09:18:54;22.40;;;16.97;;
1404;SDS011;697;51.114;6.542;2023-05-10T09:21:20;19.33;;;16.53;;
1404;SDS011;697;51.114;6.542;2023-05-10T09:23:47;20.43;;;17.10;;
1404;SDS011;697;51.114;6.542;2023-05-10T09:26:15;19.30;;;16.80;;
1404;SDS011;697;51.114;6.542;2023-05-10T09:28:53;18.80;;;16.80;;
1404;SDS011;697;51.114;6.542;2023-05-10T09:31:22;18.60;;;15.70;;
1404;SDS011;697;51.114;6.542;2023-05-10T09:33:50;20.10;;;15.57;;
1404;SDS011;697;51.114;6.542;2023-05-10T09:36:17;22.83;;;16.30;;
1404;SDS011;697;51.114;6.542;2023-05-10T09:38:47;19.33;;;17.00;;
1404;SDS011;697;51.114;6.542;2023-05-10T09:41:15;20.10;;;16.37;;
1404;SDS011;697;51.114;6.542;2023-05-10T09:43:43;22.30;;;17.97;;
1404;SDS011;697;51.114;6.542;2023-05-10T09:46:11;18.67;;;16.30;;
1404;SDS011;697;51.114;6.542;2023-05-10T09:48:39;20.70;;;16.47;;
1404;SDS011;697;51.114;6.542;2023-05-10T09:51:08;20.63;;;16.60;;
1404;SDS011;697;51.114;6.542;2023-05-10T09:53:35;18.63;;;14.97;;
1404;SDS011;697;51.114;6.542;2023-05-10T09:56:02;22.93;;;16.07;;
1404;SDS011;697;51.114;6.542;2023-05-10T09:58:29;18.40;;;15.90;;
1404;SDS011;697;51.114;6.542;2023-05-10T10:00:56;19.13;;;16.13;;
1404;SDS011;697;51.114;6.542;2023-05-10T10:03:24;15.17;;;13.60;;
1404;SDS011;697;51.114;6.542;2023-05-10T10:05:50;17.97;;;15.70;;
1404;SDS011;697;51.114;6.542;2023-05-10T10:08:18;16.20;;;13.93;;
1404;SDS011;697;51.114;6.542;2023-05-10T10:10:45;16.00;;;14.07;;
1404;SDS011;697;51.114;6.542;2023-05-10T10:13:13;18.03;;;13.37;;
1404;SDS011;697;51.114;6.542;2023-05-10T10:15:40;19.40;;;12.83;;
1404;SDS011;697;51.114;6.542;2023-05-10T10:18:08;13.97;;;12.53;;
1404;SDS011;697;51.114;6.542;2023-05-10T10:20:40;14.33;;;11.33;;
1404;SDS011;697;51.114;6.542;2023-05-10T10:23:07;13.83;;;12.10;;
1404;SDS011;697;51.114;6.542;2023-05-10T10:25:34;15.93;;;11.97;;
1404;SDS011;697;51.114;6.542;2023-05-10T10:28:06;15.43;;;11.77;;
1404;SDS011;697;51.114;6.542;2023-05-10T10:30:42;12.33;;;11.03;;
1404;SDS011;697;51.114;6.542;2023-05-10T10:36:22;13.00;;;11.33;;
1404;SDS011;697;51.114;6.542;2023-05-10T10:38:55;14.73;;;11.90;;
1404;SDS011;697;51.114;6.542;2023-05-10T10:41:28;16.67;;;10.87;;
1404;SDS011;697;51.114;6.542;2023-05-10T10:47:00;14.57;;;12.33;;
1404;SDS011;697;51.114;6.542;2023-05-10T10:49:30;14.03;;;10.80;;
1404;SDS011;697;51.114;6.542;2023-05-10T10:52:13;12.57;;;10.80;;
1404;SDS011;697;51.114;6.542;2023-05-10T10:54:50;13.43;;;11.83;;
1404;SDS011;697;51.114;6.542;2023-05-10T10:57:18;13.73;;;11.40;;
1404;SDS011;697;51.114;6.542;2023-05-10T10:59:46;12.50;;;11.20;;
1404;SDS011;697;51.114;6.542;2023-05-10T11:02:32;16.23;;;12.80;;
1404;SDS011;697;51.114;6.542;2023-05-10T11:05:00;13.90;;;11.40;;
1404;SDS011;697;51.114;6.542;2023-05-10T11:07:53;16.10;;;11.40;;
1404;SDS011;697;51.114;6.542;2023-05-10T11:10:21;11.87;;;10.63;;
1404;SDS011;697;51.114;6.542;2023-05-10T11:12:52;12.70;;;10.23;;
1404;SDS011;697;51.114;6.542;2023-05-10T11:15:28;13.47;;;11.50;;
1404;SDS011;697;51.114;6.542;2023-05-10T11:17:55;12.03;;;10.73;;
1404;SDS011;697;51.114;6.542;2023-05-10T11:20:22;9.60;;;8.70;;
1404;SDS011;697;51.114;6.542;2023-05-10T11:22:55;10.73;;;9.63;;
1404;SDS011;697;51.114;6.542;2023-05-10T11:25:26;10.43;;;9.33;;
1404;SDS011;697;51.114;6.542;2023-05-10T11:27:53;11.00;;;9.60;;
1404;SDS011;697;51.114;6.542;2023-05-10T11:30:20;12.23;;;11.03;;
1404;SDS011;697;51.114;6.542;2023-05-10T11:32:47;12.10;;;9.87;;
1404;SDS011;697;51.114;6.542;2023-05-10T11:35:13;15.80;;;9.70;;
1404;SDS011;697;51.114;6.542;2023-05-10T11:37:40;10.50;;;9.43;;
1404;SDS011;697;51.114;6.542;2023-05-10T11:40:10;10.00;;;9.10;;
1404;SDS011;697;51.114;6.542;2023-05-10T11:42:37;11.93;;;10.57;;
1404;SDS011;697;51.114;6.542;2023-05-10T11:45:05;11.20;;;9.50;;
1404;SDS011;697;51.114;6.542;2023-05-10T11:47:32;11.37;;;10.17;;
1404;SDS011;697;51.114;6.542;2023-05-10T11:50:00;11.07;;;10.00;;
1404;SDS011;697;51.114;6.542;2023-05-10T11:52:27;10.10;;;9.10;;
1404;SDS011;697;51.114;6.542;2023-05-10T11:54:54;11.73;;;8.77;;
1404;SDS011;697;51.114;6.542;2023-05-10T11:57:25;9.37;;;8.10;;
1404;SDS011;697;51.114;6.542;2023-05-10T11:59:53;10.43;;;9.20;;
1404;SDS011;697;51.114;6.542;2023-05-10T12:02:20;9.30;;;8.30;;
1404;SDS011;697;51.114;6.542;2023-05-10T12:04:47;9.50;;;8.60;;
1404;SDS011;697;51.114;6.542;2023-05-10T12:07:14;9.20;;;8.30;;
1404;SDS011;697;51.114;6.542;2023-05-10T12:09:42;8.90;;;8.00;;
1404;SDS011;697;51.114;6.542;2023-05-10T12:12:09;7.80;;;7.10;;
1404;SDS011;697;51.114;6.542;2023-05-10T12:14:38;8.37;;;7.57;;
1404;SDS011;697;51.114;6.542;2023-05-10T12:17:04;8.17;;;7.47;;
1404;SDS011;697;51.114;6.542;2023-05-10T12:19:36;8.30;;;7.50;;
1404;SDS011;697;51.114;6.542;2023-05-10T12:22:04;7.10;;;6.40;;
1404;SDS011;697;51.114;6.542;2023-05-10T12:24:34;7.30;;;6.60;;
1404;SDS011;697;51.114;6.542;2023-05-10T12:27:04;6.33;;;5.77;;
1404;SDS011;697;51.114;6.542;2023-05-10T12:29:33;5.80;;;5.30;;
1404;SDS011;697;51.114;6.542;2023-05-10T12:32:01;8.33;;;6.43;;
1404;SDS011;697;51.114;6.542;2023-05-10T12:34:30;6.83;;;6.23;;
1404;SDS011;697;51.114;6.542;2023-05-10T12:36:59;6.10;;;5.60;;
1404;SDS011;697;51.114;6.542;2023-05-10T12:39:26;6.47;;;5.87;;
1404;SDS011;697;51.114;6.542;2023-05-10T12:42:04;6.07;;;5.57;;
1404;SDS011;697;51.114;6.542;2023-05-10T12:44:31;6.40;;;5.73;;
1404;SDS011;697;51.114;6.542;2023-05-10T12:46:58;7.17;;;6.47;;
1404;SDS011;697;51.114;6.542;2023-05-10T12:49:26;6.80;;;6.20;;
1404;SDS011;697;51.114;6.542;2023-05-10T12:51:52;6.60;;;6.00;;
1404;SDS011;697;51.114;6.542;2023-05-10T12:54:19;7.53;;;6.57;;
1404;SDS011;697;51.114;6.542;2023-05-10T12:56:46;10.30;;;9.33;;
1404;SDS011;697;51.114;6.542;2023-05-10T12:59:13;11.93;;;10.63;;
1404;SDS011;697;51.114;6.542;2023-05-10T13:01:39;12.43;;;11.33;;
1404;SDS011;697;51.114;6.542;2023-05-10T13:04:06;10.83;;;9.73;;
1404;SDS011;697;51.114;6.542;2023-05-10T13:06:34;9.67;;;8.67;;
1404;SDS011;697;51.114;6.542;2023-05-10T13:09:01;8.27;;;7.50;;
1404;SDS011;697;51.114;6.542;2023-05-10T13:11:28;7.47;;;6.80;;
1404;SDS011;697;51.114;6.542;2023-05-10T13:13:55;11.80;;;7.10;;
1404;SDS011;697;51.114;6.542;2023-05-10T13:16:21;8.00;;;7.20;;
1404;SDS011;697;51.114;6.542;2023-05-10T13:18:48;9.17;;;8.27;;
1404;SDS011;697;51.114;6.542;2023-05-10T13:21:15;8.53;;;7.73;;
1404;SDS011;697;51.114;6.542;2023-05-10T13:23:43;8.30;;;7.57;;
1404;SDS011;697;51.114;6.542;2023-05-10T13:26:11;7.43;;;6.80;;
1404;SDS011;697;51.114;6.542;2023-05-10T13:28:38;7.40;;;6.70;;
1404;SDS011;697;51.114;6.542;2023-05-10T13:31:05;7.77;;;6.70;;
1404;SDS011;697;51.114;6.542;2023-05-10T13:33:32;9.00;;;6.80;;
1404;SDS011;697;51.114;6.542;2023-05-10T13:35:59;6.93;;;6.30;;
1404;SDS011;697;51.114;6.542;2023-05-10T13:38:25;6.40;;;5.80;;
1404;SDS011;697;51.114;6.542;2023-05-10T13:40:53;6.50;;;5.93;;
1404;SDS011;697;51.114;6.542;2023-05-10T13:43:20;6.73;;;6.13;;
1404;SDS011;697;51.114;6.542;2023-05-10T13:45:47;7.17;;;5.40;;
1404;SDS011;697;51.114;6.542;2023-05-10T13:48:13;6.17;;;5.60;;
1404;SDS011;697;51.114;6.542;2023-05-10T13:50:40;6.57;;;5.90;;
1404;SDS011;697;51.114;6.542;2023-05-10T13:53:07;6.30;;;5.53;;
1404;SDS011;697;51.114;6.542;2023-05-10T13:55:33;4.90;;;4.50;;
1404;SDS011;697;51.114;6.542;2023-05-10T13:58:02;5.13;;;4.27;;
1404;SDS011;697;51.114;6.542;2023-05-10T14:00:28;5.10;;;4.60;;
1404;SDS011;697;51.114;6.542;2023-05-10T14:02:55;5.60;;;5.10;;
1404;SDS011;697;51.114;6.542;2023-05-10T14:05:22;4.50;;;4.00;;
1404;SDS011;697;51.114;6.542;2023-05-10T14:07:49;4.63;;;4.23;;
1404;SDS011;697;51.114;6.542;2023-05-10T14:10:16;4.63;;;4.23;;
1404;SDS011;697;51.114;6.542;2023-05-10T14:12:43;6.30;;;4.90;;
1404;SDS011;697;51.114;6.542;2023-05-10T14:15:11;5.47;;;4.97;;
1404;SDS011;697;51.114;6.542;2023-05-10T14:17:38;5.73;;;5.10;;
1404;SDS011;697;51.114;6.542;2023-05-10T14:20:05;5.03;;;4.60;;
1404;SDS011;697;51.114;6.542;2023-05-10T14:22:33;5.37;;;4.87;;
1404;SDS011;697;51.114;6.542;2023-05-10T14:25:00;5.10;;;4.70;;
1404;SDS011;697;51.114;6.542;2023-05-10T14:27:27;6.17;;;5.20;;
1404;SDS011;697;51.114;6.542;2023-05-10T14:29:54;6.20;;;5.60;;
1404;SDS011;697;51.114;6.542;2023-05-10T14:32:22;6.10;;;5.53;;
1404;SDS011;697;51.114;6.542;2023-05-10T14:34:48;6.47;;;5.90;;
1404;SDS011;697;51.114;6.542;2023-05-10T14:37:15;6.53;;;5.70;;
1404;SDS011;697;51.114;6.542;2023-05-10T14:39:42;6.13;;;5.60;;
1404;SDS011;697;51.114;6.542;2023-05-10T14:42:09;5.97;;;5.47;;
1404;SDS011;697;51.114;6.542;2023-05-10T14:44:35;6.50;;;5.70;;
1404;SDS011;697;51.114;6.542;2023-05-10T14:47:03;6.20;;;5.60;;
1404;SDS011;697;51.114;6.542;2023-05-10T14:49:31;6.57;;;5.97;;
1404;SDS011;697;51.114;6.542;2023-05-10T14:51:57;7.90;;;7.10;;
1404;SDS011;697;51.114;6.542;2023-05-10T14:54:24;7.33;;;6.67;;
1404;SDS011;697;51.114;6.542;2023-05-10T14:56:51;7.47;;;6.77;;
1404;SDS011;697;51.114;6.542;2023-05-10T14:59:17;7.70;;;6.93;;
1404;SDS011;697;51.114;6.542;2023-05-10T15:01:44;7.20;;;6.33;;
1404;SDS011;697;51.114;6.542;2023-05-10T15:04:11;7.50;;;6.80;;
1404;SDS011;697;51.114;6.542;2023-05-10T15:06:39;7.97;;;7.20;;
1404;SDS011;697;51.114;6.542;2023-05-10T15:09:06;6.23;;;5.67;;
1404;SDS011;697;51.114;6.542;2023-05-10T15:11:33;6.80;;;6.10;;
1404;SDS011;697;51.114;6.542;2023-05-10T15:14:00;5.87;;;5.10;;
1404;SDS011;697;51.114;6.542;2023-05-10T15:16:27;6.63;;;5.47;;
1404;SDS011;697;51.114;6.542;2023-05-10T15:18:54;5.43;;;4.93;;
1404;SDS011;697;51.114;6.542;2023-05-10T15:21:20;5.80;;;5.30;;
1404;SDS011;697;51.114;6.542;2023-05-10T15:23:49;7.57;;;5.93;;